createdAt,value
2018-02-12T00:02:23.462Z,74.89
2018-02-12T00:04:50.081Z,74.73
2018-02-12T00:07:16.678Z,75.05
2018-02-12T00:09:43.278Z,74.42
2018-02-12T00:12:09.936Z,74.75
2018-02-12T00:14:36.510Z,74.90
2018-02-12T00:17:03.837Z,74.84
2018-02-12T00:19:30.445Z,75.31
2018-02-12T00:21:57.027Z,75.68
2018-02-12T00:24:24.437Z,75.76
2018-02-12T00:26:51.022Z,76.24
2018-02-12T00:29:18.343Z,77.25
2018-02-12T00:31:44.912Z,78.02
2018-02-12T00:34:12.263Z,78.54
2018-02-12T00:36:39.687Z,79.63
2018-02-12T00:39:06.260Z,80.00
2018-02-12T00:41:33.577Z,80.44
2018-02-12T00:44:00.421Z,80.90
2018-02-12T00:46:26.998Z,80.86
2018-02-12T00:48:54.314Z,80.70
2018-02-12T00:51:20.934Z,81.14
2018-02-12T00:53:47.633Z,81.21
2018-02-12T00:56:14.230Z,80.98
2018-02-12T00:58:40.801Z,81.04
2018-02-12T01:01:08.162Z,81.01
2018-02-12T01:03:34.753Z,80.92
2018-02-12T01:06:02.106Z,80.52
2018-02-12T01:08:28.811Z,80.33
2018-02-12T01:10:55.380Z,80.32
2018-02-12T01:13:21.971Z,80.40
2018-02-12T01:15:48.585Z,80.40
2018-02-12T01:18:15.173Z,80.31
2018-02-12T01:20:41.784Z,80.55
2018-02-12T01:23:08.382Z,80.21
2018-02-12T01:25:35.735Z,80.23
2018-02-12T01:28:02.346Z,80.26
2018-02-12T01:30:28.952Z,80.26
2018-02-12T01:32:55.537Z,80.20
2018-02-12T01:35:22.103Z,79.91
2018-02-12T01:37:49.405Z,79.63
2018-02-12T01:40:16.033Z,79.66
2018-02-12T01:42:42.593Z,79.60
2018-02-12T01:45:09.187Z,79.81
2018-02-12T01:47:35.764Z,79.82
2018-02-12T01:50:18.614Z,79.66
2018-02-12T01:52:45.219Z,79.53
2018-02-12T01:55:11.882Z,79.79
2018-02-12T01:57:39.198Z,79.91
2018-02-12T02:00:05.829Z,79.47
2018-02-12T02:02:32.419Z,79.67
2018-02-12T02:04:59.797Z,79.64
2018-02-12T02:07:26.389Z,79.67
2018-02-12T02:09:52.965Z,79.75
2018-02-12T02:12:19.573Z,79.76
2018-02-12T02:14:46.140Z,79.57
2018-02-12T02:17:12.706Z,79.24
2018-02-12T02:19:39.334Z,79.19
2018-02-12T02:22:05.878Z,79.42
2018-02-12T02:24:32.523Z,79.78
2018-02-12T02:26:59.098Z,79.88
2018-02-12T02:29:26.400Z,79.90
2018-02-12T02:31:53.010Z,79.70
2018-02-12T02:34:19.573Z,79.97
2018-02-12T02:36:46.169Z,80.08
2018-02-12T02:39:13.471Z,80.31
2018-02-12T02:41:40.104Z,80.37
2018-02-12T02:44:06.734Z,80.67
2018-02-12T02:46:33.321Z,80.34
2018-02-12T02:49:00.634Z,80.18
2018-02-12T02:51:27.247Z,80.20
2018-02-12T02:53:53.833Z,80.17
2018-02-12T02:56:20.717Z,80.02
2018-02-12T02:58:47.335Z,79.75
2018-02-12T03:01:14.001Z,79.73
2018-02-12T03:03:40.644Z,79.78
2018-02-12T03:06:07.264Z,79.75
2018-02-12T03:08:33.836Z,79.81
2018-02-12T03:11:00.493Z,80.03
2018-02-12T03:13:27.075Z,80.21
2018-02-12T03:15:53.683Z,80.19
2018-02-12T03:18:20.266Z,79.98
2018-02-12T03:20:46.846Z,79.79
2018-02-12T03:23:13.430Z,79.40
2018-02-12T03:25:40.008Z,78.86
2018-02-12T03:28:06.605Z,79.07
2018-02-12T03:30:33.240Z,79.15
2018-02-12T03:32:59.834Z,79.08
2018-02-12T03:35:26.562Z,79.33
2018-02-12T03:37:53.885Z,79.29
2018-02-12T03:40:20.453Z,78.82
2018-02-12T03:42:47.033Z,78.89
2018-02-12T03:45:13.771Z,78.51
2018-02-12T03:47:40.378Z,78.94
2018-02-12T03:50:06.949Z,78.05
2018-02-12T03:52:33.545Z,78.23
2018-02-12T03:55:00.154Z,78.16
2018-02-12T03:57:26.689Z,77.96
2018-02-12T03:59:54.009Z,78.35
2018-02-12T04:02:20.578Z,78.70
2018-02-12T04:04:47.166Z,79.13
2018-02-12T04:07:14.492Z,79.41
2018-02-12T04:09:41.099Z,79.57
2018-02-12T04:12:07.709Z,79.68
2018-02-12T04:14:35.015Z,79.50
2018-02-12T04:17:02.036Z,79.33
2018-02-12T04:19:28.601Z,79.36
2018-02-12T04:21:55.173Z,79.10
2018-02-12T04:24:22.489Z,78.97
2018-02-12T04:26:50.134Z,79.09
2018-02-12T04:29:16.679Z,78.87
2018-02-12T04:31:43.245Z,78.79
2018-02-12T04:34:10.573Z,78.71
2018-02-12T04:36:37.204Z,78.79
2018-02-12T04:39:03.830Z,78.66
2018-02-12T04:41:30.438Z,78.88
2018-02-12T04:43:57.015Z,78.85
2018-02-12T04:46:23.638Z,78.60
2018-02-12T04:48:50.194Z,78.31
2018-02-12T04:51:16.766Z,77.79
2018-02-12T04:53:44.132Z,77.96
2018-02-12T04:56:10.709Z,77.39
2018-02-12T04:58:37.295Z,77.29
2018-02-12T05:01:04.661Z,77.23
2018-02-12T05:03:31.231Z,76.84
2018-02-12T05:05:57.839Z,76.89
2018-02-12T05:08:24.413Z,76.73
2018-02-12T05:10:50.995Z,77.13
2018-02-12T05:13:18.412Z,76.75
2018-02-12T05:15:45.012Z,76.28
2018-02-12T05:18:11.587Z,76.41
2018-02-12T05:20:38.159Z,76.38
2018-02-12T05:23:04.775Z,76.35
2018-02-12T05:25:32.114Z,76.52
2018-02-12T05:27:58.747Z,76.40
2018-02-12T05:30:26.165Z,76.28
2018-02-12T05:32:52.786Z,76.15
2018-02-12T05:35:19.357Z,75.60
2018-02-12T05:37:45.965Z,75.79
2018-02-12T05:40:12.531Z,75.53
2018-02-12T05:42:39.118Z,76.02
2018-02-12T05:45:05.710Z,75.64
2018-02-12T05:47:32.311Z,75.95
2018-02-12T05:49:58.877Z,75.53
2018-02-12T05:52:25.476Z,75.55
2018-02-12T05:54:52.098Z,75.73
2018-02-12T05:57:18.733Z,75.63
2018-02-12T05:59:45.325Z,75.76
2018-02-12T06:02:11.935Z,75.44
2018-02-12T06:04:38.532Z,75.36
2018-02-12T06:07:05.890Z,75.21
2018-02-12T06:09:33.230Z,75.27
2018-02-12T06:11:59.791Z,75.24
2018-02-12T06:14:27.129Z,74.95
2018-02-12T06:16:54.446Z,75.27
2018-02-12T06:19:21.081Z,75.45
2018-02-12T06:21:47.647Z,75.52
2018-02-12T06:24:14.325Z,75.49
2018-02-12T06:26:40.958Z,75.60
2018-02-12T06:29:08.303Z,75.71
2018-02-12T06:31:35.606Z,75.73
2018-02-12T06:34:02.314Z,75.58
2018-02-12T06:36:28.875Z,75.38
2018-02-12T06:38:55.498Z,75.44
2018-02-12T06:41:22.108Z,75.85
2018-02-12T06:43:49.470Z,75.80
2018-02-12T06:46:16.048Z,75.47
2018-02-12T06:48:43.397Z,74.74
2018-02-12T06:51:10.802Z,74.23
2018-02-12T06:53:38.093Z,75.37
2018-02-12T06:56:04.682Z,76.07
2018-02-12T06:58:31.285Z,76.32
2018-02-12T07:00:57.882Z,76.01
2018-02-12T07:03:24.503Z,76.35
2018-02-12T07:05:51.867Z,76.82
2018-02-12T07:08:18.502Z,76.77
2018-02-12T07:10:45.098Z,76.66
2018-02-12T07:13:11.686Z,76.26
2018-02-12T07:15:38.282Z,76.53
2018-02-12T07:18:04.917Z,76.43
2018-02-12T07:20:32.254Z,76.24
2018-02-12T07:22:58.954Z,76.20
2018-02-12T07:25:26.311Z,75.95
2018-02-12T07:27:52.959Z,76.30
2018-02-12T07:30:19.538Z,76.53
2018-02-12T07:32:46.190Z,76.29
2018-02-12T07:35:12.807Z,76.51
2018-02-12T07:37:39.390Z,76.18
2018-02-12T07:40:06.045Z,76.37
2018-02-12T07:42:32.632Z,76.80
2018-02-12T07:45:00.199Z,76.57
2018-02-12T07:47:27.551Z,76.71
2018-02-12T07:49:54.946Z,76.92
2018-02-12T07:52:21.548Z,76.99
2018-02-12T07:54:48.899Z,76.90
2018-02-12T07:57:15.475Z,77.14
2018-02-12T07:59:42.347Z,77.10
2018-02-12T08:02:08.971Z,77.04
2018-02-12T08:04:35.526Z,76.91
2018-02-12T08:07:02.157Z,76.59
2018-02-12T08:09:28.746Z,76.49
2018-02-12T08:11:55.392Z,76.24
2018-02-12T08:14:22.025Z,75.90
2018-02-12T08:16:48.638Z,75.63
2018-02-12T08:19:15.246Z,75.24
2018-02-12T08:21:41.868Z,75.31
2018-02-12T08:24:08.530Z,74.99
2018-02-12T08:26:35.192Z,74.47
2018-02-12T08:29:02.547Z,73.62
2018-02-12T08:31:29.871Z,73.36
2018-02-12T08:33:56.645Z,73.04
2018-02-12T08:36:23.984Z,72.53
2018-02-12T08:38:50.563Z,71.78
2018-02-12T08:41:17.190Z,69.06
2018-02-12T08:43:43.813Z,66.35
2018-02-12T08:46:10.475Z,65.18
2018-02-12T08:48:37.120Z,63.74
2018-02-12T08:51:03.712Z,64.37
2018-02-12T08:53:30.354Z,66.20
2018-02-12T08:55:57.876Z,67.25
2018-02-12T08:58:24.494Z,68.65
2018-02-12T09:00:51.132Z,69.07
2018-02-12T09:03:17.724Z,69.09
2018-02-12T09:05:44.343Z,70.31
2018-02-12T09:08:11.004Z,71.27
2018-02-12T09:10:38.414Z,70.46
2018-02-12T09:13:05.026Z,70.28
2018-02-12T09:15:31.603Z,71.15
2018-02-12T09:17:58.223Z,71.91
2018-02-12T09:20:24.855Z,70.91
2018-02-12T09:22:51.482Z,71.77
2018-02-12T09:25:18.070Z,71.10
2018-02-12T09:27:44.776Z,69.74
2018-02-12T09:30:12.103Z,68.74
2018-02-12T09:32:38.694Z,67.65
2018-02-12T09:35:05.334Z,65.90
2018-02-12T09:37:31.945Z,64.34
2018-02-12T09:39:58.553Z,61.13
2018-02-12T09:42:25.203Z,53.23
2018-02-12T09:44:51.780Z,51.51
2018-02-12T09:47:18.362Z,52.52
2018-02-12T09:49:44.981Z,54.21
2018-02-12T09:52:12.362Z,56.06
2018-02-12T09:54:39.043Z,56.59
2018-02-12T09:57:05.677Z,52.31
2018-02-12T09:59:32.239Z,53.52
2018-02-12T10:01:59.568Z,55.48
2018-02-12T10:04:26.362Z,56.91
2018-02-12T10:06:52.963Z,58.70
2018-02-12T10:09:19.544Z,63.42
2018-02-12T10:11:46.202Z,65.86
2018-02-12T10:14:12.758Z,68.22
2018-02-12T10:16:39.518Z,69.30
2018-02-12T10:19:06.836Z,71.57
2018-02-12T10:21:33.426Z,72.93
2018-02-12T10:24:00.056Z,73.92
2018-02-12T10:26:26.665Z,74.62
2018-02-12T10:28:53.244Z,74.28
2018-02-12T10:31:19.972Z,74.25
2018-02-12T10:33:46.554Z,74.43
2018-02-12T10:36:13.144Z,74.16
2018-02-12T10:38:40.438Z,73.55
2018-02-12T10:41:07.023Z,72.05
2018-02-12T10:43:34.392Z,70.79
2018-02-12T10:46:01.079Z,69.77
2018-02-12T10:48:27.725Z,69.68
2018-02-12T10:50:54.361Z,69.57
2018-02-12T10:53:20.980Z,68.88
2018-02-12T10:55:47.606Z,68.45
2018-02-12T10:58:14.182Z,67.90
2018-02-12T11:00:41.578Z,64.79
2018-02-12T11:03:08.224Z,60.26
2018-02-12T11:05:34.912Z,57.86
2018-02-12T11:08:01.925Z,59.21
2018-02-12T11:10:28.549Z,56.23
2018-02-12T11:12:55.132Z,52.24
2018-02-12T11:15:21.770Z,52.12
2018-02-12T11:17:48.541Z,49.09
2018-02-12T11:20:15.843Z,49.05
2018-02-12T11:22:42.454Z,48.94
2018-02-12T11:25:09.031Z,50.61
2018-02-12T11:27:36.410Z,54.25
2018-02-12T11:30:03.079Z,56.34
2018-02-12T11:32:29.729Z,60.10
2018-02-12T11:34:56.347Z,63.94
2018-02-12T11:37:22.934Z,66.01
2018-02-12T11:39:49.662Z,66.83
2018-02-12T11:42:16.264Z,67.29
2018-02-12T11:44:42.840Z,67.44
2018-02-12T11:47:09.447Z,66.68
2018-02-12T11:49:36.063Z,66.94
2018-02-12T11:52:02.705Z,67.17
2018-02-12T11:54:29.398Z,67.55
2018-02-12T11:56:55.969Z,67.92
2018-02-12T11:59:23.286Z,67.44
2018-02-12T12:01:49.885Z,67.61
2018-02-12T12:04:16.549Z,67.90
2018-02-12T12:06:43.145Z,67.77
2018-02-12T12:09:09.730Z,67.76
2018-02-12T12:11:36.333Z,66.76
2018-02-12T12:14:02.923Z,66.10
2018-02-12T12:16:29.535Z,64.68
2018-02-12T12:18:56.167Z,63.16
2018-02-12T12:21:22.744Z,60.92
2018-02-12T12:23:50.051Z,59.30
2018-02-12T12:26:16.650Z,59.63
2018-02-12T12:28:43.259Z,58.10
2018-02-12T12:31:10.610Z,57.65
2018-02-12T12:33:37.927Z,57.32
2018-02-12T12:36:04.552Z,55.88
2018-02-12T12:38:31.168Z,55.46
2018-02-12T12:40:57.817Z,56.21
2018-02-12T12:43:24.388Z,56.68
2018-02-12T12:45:50.984Z,57.45
2018-02-12T12:48:17.554Z,59.39
2018-02-12T12:50:45.210Z,59.39
2018-02-12T12:53:11.790Z,59.77
2018-02-12T12:55:38.388Z,60.22
2018-02-12T12:58:04.985Z,58.75
2018-02-12T13:00:31.614Z,59.71
2018-02-12T13:02:58.188Z,61.09
2018-02-12T13:05:24.770Z,60.88
2018-02-12T13:07:51.342Z,60.18
2018-02-12T13:10:18.107Z,58.73
2018-02-12T13:12:44.712Z,59.64
2018-02-12T13:15:11.390Z,61.93
2018-02-12T13:17:37.997Z,62.76
2018-02-12T13:20:04.572Z,63.56
2018-02-12T13:22:31.167Z,63.98
2018-02-12T13:24:57.732Z,63.15
2018-02-12T13:27:24.334Z,65.53
2018-02-12T13:29:50.934Z,67.57
2018-02-12T13:32:17.517Z,67.21
2018-02-12T13:34:44.110Z,67.67
2018-02-12T13:37:10.765Z,68.09
2018-02-12T13:39:38.082Z,68.40
2018-02-12T13:42:04.707Z,67.78
2018-02-12T13:44:31.298Z,67.83
2018-02-12T13:46:58.638Z,66.97
2018-02-12T13:49:25.212Z,66.01
2018-02-12T13:51:51.798Z,66.03
2018-02-12T13:54:18.363Z,65.69
2018-02-12T13:56:44.978Z,65.25
2018-02-12T13:59:11.547Z,64.58
2018-02-12T14:01:38.970Z,63.67
2018-02-12T14:04:06.399Z,63.69
2018-02-12T14:06:33.763Z,62.53
2018-02-12T14:09:00.373Z,60.95
2018-02-12T14:11:27.017Z,61.36
2018-02-12T14:13:53.596Z,59.64
2018-02-12T14:16:20.924Z,57.73
2018-02-12T14:18:47.521Z,60.33
2018-02-12T14:21:14.113Z,58.39
2018-02-12T14:23:40.691Z,58.40
2018-02-12T14:26:07.273Z,59.04
2018-02-12T14:28:34.200Z,59.95
2018-02-12T14:31:00.804Z,57.92
2018-02-12T14:33:27.419Z,57.63
2018-02-12T14:35:54.773Z,59.28
2018-02-12T14:38:22.140Z,58.83
2018-02-12T14:40:48.730Z,59.33
2018-02-12T14:43:15.314Z,58.62
2018-02-12T14:45:42.765Z,59.05
2018-02-12T14:48:09.462Z,58.66
2018-02-12T14:50:36.034Z,58.25
2018-02-12T14:53:02.670Z,58.58
2018-02-12T14:55:30.012Z,59.46
2018-02-12T14:57:56.798Z,59.70
2018-02-12T15:00:23.430Z,60.67
2018-02-12T15:02:50.034Z,62.68
2018-02-12T15:05:17.376Z,66.85
2018-02-12T15:07:43.966Z,70.03
2018-02-12T15:10:10.503Z,71.29
2018-02-12T15:12:37.118Z,72.12
2018-02-12T15:15:03.700Z,71.93
2018-02-12T15:17:30.298Z,71.91
2018-02-12T15:19:56.854Z,70.89
2018-02-12T15:22:23.453Z,71.32
2018-02-12T15:24:50.056Z,71.68
2018-02-12T15:27:16.707Z,72.18
2018-02-12T15:29:44.086Z,71.42
2018-02-12T15:32:10.834Z,71.09
2018-02-12T15:34:37.423Z,70.61
2018-02-12T15:37:04.019Z,70.92
2018-02-12T15:39:30.616Z,71.35
2018-02-12T15:41:57.186Z,71.06
2018-02-12T15:44:23.782Z,70.68
2018-02-12T15:46:50.415Z,70.91
2018-02-12T15:49:17.874Z,71.35
2018-02-12T15:51:44.449Z,71.74
2018-02-12T15:54:11.081Z,71.56
2018-02-12T15:56:37.710Z,70.91
2018-02-12T15:59:05.047Z,71.47
2018-02-12T16:01:32.382Z,71.48
2018-02-12T16:03:59.010Z,71.49
2018-02-12T16:06:25.606Z,71.30
2018-02-12T16:08:52.187Z,71.49
2018-02-12T16:11:18.781Z,71.04
2018-02-12T16:13:45.397Z,70.79
2018-02-12T16:16:12.725Z,70.61
2018-02-12T16:18:39.342Z,71.30
2018-02-12T16:21:05.949Z,70.67
2018-02-12T16:23:32.604Z,70.31
2018-02-12T16:25:59.234Z,70.47
2018-02-12T16:28:25.900Z,71.03
2018-02-12T16:30:52.469Z,71.01
2018-02-12T16:33:19.821Z,70.09
2018-02-12T16:35:47.130Z,69.99
2018-02-12T16:38:13.711Z,70.23
2018-02-12T16:40:40.318Z,70.35
2018-02-12T16:43:07.035Z,70.57
2018-02-12T16:45:33.598Z,70.83
2018-02-12T16:48:00.164Z,71.40
2018-02-12T16:50:26.782Z,71.21
2018-02-12T16:52:53.357Z,71.26
2018-02-12T16:55:20.211Z,71.14
2018-02-12T16:57:46.794Z,71.44
2018-02-12T17:00:13.390Z,71.18
2018-02-12T17:02:40.060Z,71.01
2018-02-12T17:05:06.665Z,70.64
2018-02-12T17:07:33.272Z,70.55
2018-02-12T17:09:59.843Z,70.90
2018-02-12T17:12:26.418Z,70.87
2018-02-12T17:14:52.993Z,70.58
2018-02-12T17:17:19.620Z,70.79
2018-02-12T17:19:46.268Z,70.82
2018-02-12T17:22:12.904Z,70.93
2018-02-12T17:24:39.578Z,71.04
2018-02-12T17:27:06.149Z,70.06
2018-02-12T17:29:33.562Z,69.17
2018-02-12T17:32:00.277Z,70.38
2018-02-12T17:34:26.884Z,70.25
2018-02-12T17:36:54.196Z,70.29
2018-02-12T17:39:20.835Z,70.07
2018-02-12T17:41:47.414Z,71.38
2018-02-12T17:44:14.029Z,72.34
2018-02-12T17:46:40.649Z,72.84
2018-02-12T17:49:07.217Z,71.64
2018-02-12T17:51:34.592Z,72.07
2018-02-12T17:54:01.178Z,72.03
2018-02-12T17:56:27.809Z,71.81
2018-02-12T17:58:54.423Z,72.93
2018-02-12T18:01:21.132Z,73.79
2018-02-12T18:03:48.484Z,73.15
2018-02-12T18:06:15.822Z,72.28
2018-02-12T18:08:43.222Z,71.52
2018-02-12T18:11:09.852Z,70.64
2018-02-12T18:13:36.420Z,70.87
2018-02-12T18:16:03.040Z,71.49
2018-02-12T18:18:29.659Z,70.99
2018-02-12T18:20:56.273Z,69.70
2018-02-12T18:23:22.903Z,71.05
2018-02-12T18:25:49.494Z,70.57
2018-02-12T18:28:16.139Z,70.12
2018-02-12T18:30:42.708Z,71.20
2018-02-12T18:33:09.428Z,71.58
2018-02-12T18:35:36.818Z,72.54
2018-02-12T18:38:03.450Z,73.13
2018-02-12T18:40:30.792Z,74.47
2018-02-12T18:42:57.397Z,75.03
2018-02-12T18:45:24.080Z,74.93
2018-02-12T18:47:51.426Z,74.73
2018-02-12T18:50:18.793Z,74.66
2018-02-12T18:52:46.148Z,74.43
2018-02-12T18:55:13.533Z,74.18
2018-02-12T18:57:40.142Z,74.02
2018-02-12T19:00:42.443Z,73.64
2018-02-12T19:03:09.118Z,73.53
2018-02-12T19:05:35.694Z,73.08
2018-02-12T19:08:02.319Z,72.02
2018-02-12T19:10:29.658Z,71.11
2018-02-12T19:12:56.237Z,71.04
2018-02-12T19:15:22.850Z,71.17
2018-02-12T19:17:50.198Z,71.01
2018-02-12T19:20:16.782Z,72.17
2018-02-12T19:22:43.387Z,72.68
2018-02-12T19:25:10.730Z,72.58
2018-02-12T19:27:37.326Z,72.07
2018-02-12T19:30:04.150Z,71.21
2018-02-12T19:32:30.766Z,71.94
2018-02-12T19:34:58.130Z,73.04
2018-02-12T19:37:24.708Z,73.48
2018-02-12T19:39:51.304Z,73.37
2018-02-12T19:42:17.996Z,73.10
2018-02-12T19:44:44.593Z,72.85
2018-02-12T19:47:11.967Z,72.75
2018-02-12T19:49:39.319Z,71.90
2018-02-12T19:52:05.986Z,71.81
2018-02-12T19:54:32.562Z,71.23
2018-02-12T19:56:59.162Z,71.16
2018-02-12T19:59:26.573Z,71.08
2018-02-12T20:01:53.308Z,70.87
2018-02-12T20:04:19.889Z,71.16
2018-02-12T20:06:47.255Z,70.22
2018-02-12T20:09:13.842Z,70.43
2018-02-12T20:11:40.446Z,70.72
2018-02-12T20:14:07.072Z,70.71
2018-02-12T20:16:34.438Z,70.04
2018-02-12T20:19:01.080Z,69.19
2018-02-12T20:21:27.675Z,69.34
2018-02-12T20:23:54.258Z,68.91
2018-02-12T20:26:20.906Z,68.67
2018-02-12T20:28:47.487Z,68.28
2018-02-12T20:31:14.876Z,69.44
2018-02-12T20:33:41.504Z,70.35
2018-02-12T20:36:08.134Z,70.96
2018-02-12T20:38:35.514Z,71.43
2018-02-12T20:41:02.207Z,72.11
2018-02-12T20:43:28.803Z,73.44
2018-02-12T20:45:55.509Z,74.20
2018-02-12T20:48:22.866Z,75.02
2018-02-12T20:50:50.238Z,75.05
2018-02-12T20:53:16.915Z,75.42
2018-02-12T20:55:43.535Z,75.70
2018-02-12T20:58:10.186Z,75.31
2018-02-12T21:00:36.850Z,75.50
2018-02-12T21:03:03.470Z,75.67
2018-02-12T21:05:30.838Z,75.91
2018-02-12T21:07:57.494Z,75.68
2018-02-12T21:10:24.821Z,75.29
2018-02-12T21:12:51.527Z,74.87
2018-02-12T21:15:18.454Z,73.55
2018-02-12T21:17:45.082Z,73.20
2018-02-12T21:20:11.734Z,73.78
2018-02-12T21:22:38.342Z,74.85
2018-02-12T21:25:04.996Z,74.85
2018-02-12T21:27:31.609Z,75.79
2018-02-12T21:29:58.263Z,76.03
2018-02-12T21:32:25.611Z,75.95
2018-02-12T21:34:52.243Z,75.73
2018-02-12T21:37:19.635Z,75.41
2018-02-12T21:39:46.288Z,75.41
2018-02-12T21:42:12.898Z,74.40
2018-02-12T21:44:39.513Z,74.08
2018-02-12T21:47:06.956Z,72.35
2018-02-12T21:49:33.591Z,72.19
2018-02-12T21:52:00.199Z,72.22
2018-02-12T21:54:26.818Z,73.35
2018-02-12T21:56:53.420Z,73.99
2018-02-12T21:59:20.867Z,74.25
2018-02-12T22:01:47.483Z,74.39
2018-02-12T22:04:14.134Z,74.21
2018-02-12T22:06:40.716Z,73.50
2018-02-12T22:09:07.393Z,72.93
2018-02-12T22:11:34.789Z,72.61
2018-02-12T22:14:02.139Z,72.10
2018-02-12T22:16:29.457Z,73.06
2018-02-12T22:18:56.107Z,73.92
2018-02-12T22:21:22.837Z,73.82
2018-02-12T22:23:49.418Z,74.51
2018-02-12T22:26:16.764Z,74.87
2018-02-12T22:28:43.374Z,74.31
2018-02-12T22:31:10.062Z,74.64
2018-02-12T22:33:36.631Z,74.29
2018-02-12T22:36:03.223Z,73.87
2018-02-12T22:38:29.933Z,73.73
2018-02-12T22:40:56.494Z,73.28
2018-02-12T22:43:23.870Z,73.57
2018-02-12T22:45:50.541Z,73.94
2018-02-12T22:48:17.459Z,74.10
2018-02-12T22:50:44.042Z,74.94
2018-02-12T22:53:10.614Z,75.46
2018-02-12T22:55:37.254Z,75.74
2018-02-12T22:58:03.859Z,75.33
2018-02-12T23:00:30.686Z,74.78
2018-02-12T23:02:58.061Z,74.68
2018-02-12T23:05:24.702Z,73.67
2018-02-12T23:07:52.031Z,73.63
2018-02-12T23:10:19.516Z,74.04
2018-02-12T23:12:46.822Z,74.68
2018-02-12T23:15:19.593Z,74.28
2018-02-12T23:17:46.232Z,74.02
2018-02-12T23:20:12.906Z,74.37
2018-02-12T23:22:39.483Z,74.75
2018-02-12T23:25:06.126Z,74.34
2018-02-12T23:27:32.726Z,74.15
2018-02-12T23:30:00.207Z,73.47
2018-02-12T23:32:26.839Z,72.68
2018-02-12T23:34:54.173Z,72.79
2018-02-12T23:37:20.777Z,73.47
2018-02-12T23:39:47.391Z,73.80
2018-02-12T23:42:13.986Z,74.45
2018-02-12T23:44:41.312Z,73.06
2018-02-12T23:47:07.905Z,72.64
2018-02-12T23:49:34.478Z,72.69
2018-02-12T23:52:01.942Z,73.40
2018-02-12T23:54:28.539Z,74.02
2018-02-12T23:56:55.158Z,74.45
2018-02-12T23:59:21.761Z,74.60
